createdAt,value
2022-12-12T00:01:51.823Z,2407
2022-12-12T00:11:51.864Z,2404
2022-12-12T00:21:51.810Z,2400
2022-12-12T00:31:51.813Z,2400
2022-12-12T00:41:51.833Z,2399
2022-12-12T00:51:51.793Z,2397
2022-12-12T01:01:51.817Z,2395
2022-12-12T01:11:51.786Z,2394
2022-12-12T01:21:51.817Z,2394
2022-12-12T01:31:51.781Z,2393
2022-12-12T01:41:51.779Z,2296
2022-12-12T01:51:51.791Z,2328
2022-12-12T02:01:51.788Z,2361
2022-12-12T02:11:51.745Z,2373
2022-12-12T02:21:51.782Z,2381
2022-12-12T02:31:51.763Z,2385
2022-12-12T02:41:51.747Z,2391
2022-12-12T02:51:51.771Z,2393
2022-12-12T03:01:51.790Z,2394
2022-12-12T03:11:51.741Z,2395
2022-12-12T03:21:51.776Z,2395
2022-12-12T03:31:51.884Z,2389
2022-12-12T03:41:51.720Z,2391
2022-12-12T03:51:51.755Z,2393
2022-12-12T04:01:51.755Z,2393
2022-12-12T04:11:51.705Z,2405
2022-12-12T04:21:51.748Z,2400
2022-12-12T04:31:51.778Z,2398
2022-12-12T04:41:51.708Z,2398
2022-12-12T04:51:51.732Z,2397
2022-12-12T05:01:53.520Z,2395
2022-12-12T05:11:51.679Z,2393
2022-12-12T05:21:51.718Z,2393
2022-12-12T05:31:51.759Z,2393
2022-12-12T05:41:51.757Z,2392
2022-12-12T05:51:51.694Z,2392
2022-12-12T06:01:51.658Z,2391
2022-12-12T06:11:51.681Z,2391
2022-12-12T06:21:51.706Z,2402
2022-12-12T06:31:51.668Z,2398
2022-12-12T06:41:51.698Z,2395
2022-12-12T06:51:51.685Z,2394
2022-12-12T07:01:51.719Z,2392
2022-12-12T07:11:51.676Z,2390
2022-12-12T07:21:51.696Z,2390
2022-12-12T07:31:51.642Z,2391
2022-12-12T07:41:51.668Z,2389
2022-12-12T07:51:51.652Z,2389
2022-12-12T08:01:51.694Z,2389
2022-12-12T08:11:51.620Z,2386
2022-12-12T08:21:51.621Z,2386
2022-12-12T08:31:51.616Z,2401
2022-12-12T08:41:51.644Z,2398
2022-12-12T08:51:51.608Z,2400
2022-12-12T09:01:51.806Z,2399
2022-12-12T09:11:51.616Z,2398
2022-12-12T09:21:51.608Z,2399
2022-12-12T09:31:51.592Z,2401
2022-12-12T09:41:51.704Z,2404
2022-12-12T09:51:51.606Z,2407
2022-12-12T10:01:51.578Z,2409
2022-12-12T10:11:51.561Z,2411
2022-12-12T10:21:51.568Z,2412
2022-12-12T10:31:51.544Z,2414
2022-12-12T10:41:51.508Z,2426
2022-12-12T10:51:51.525Z,2423
2022-12-12T11:02:09.882Z,2422
2022-12-12T11:11:51.537Z,2423
2022-12-12T11:21:51.478Z,2423
2022-12-12T11:31:51.500Z,2422
2022-12-12T11:41:51.420Z,2423
2022-12-12T11:51:51.440Z,2426
2022-12-12T12:01:51.399Z,2426
2022-12-12T12:11:51.390Z,2426
2022-12-12T12:21:51.400Z,2426
2022-12-12T12:31:51.350Z,2427
2022-12-12T12:41:51.344Z,2428
2022-12-12T12:51:51.358Z,2440
2022-12-12T13:01:51.356Z,2436
2022-12-12T13:11:51.306Z,2435
2022-12-12T13:21:51.317Z,2433
2022-12-12T13:31:51.251Z,2431
2022-12-12T13:41:51.302Z,2431
2022-12-12T13:51:51.259Z,2428
2022-12-12T14:01:51.433Z,2428
2022-12-12T14:11:51.253Z,2426
2022-12-12T14:21:51.222Z,2426
2022-12-12T14:31:51.212Z,2426
2022-12-12T14:41:51.212Z,2434
2022-12-12T14:51:51.207Z,2428
2022-12-12T15:01:51.159Z,2438
2022-12-12T15:11:51.186Z,2431
2022-12-12T15:21:51.148Z,2428
2022-12-12T15:31:51.257Z,2423
2022-12-12T15:41:51.151Z,2421
2022-12-12T15:51:51.119Z,2419
2022-12-12T16:01:51.098Z,2416
2022-12-12T16:11:51.121Z,2414
2022-12-12T16:21:51.086Z,2414
2022-12-12T16:31:51.150Z,2412
2022-12-12T16:41:51.084Z,2412
2022-12-12T16:51:51.077Z,2411
2022-12-12T17:01:51.045Z,2408
2022-12-12T17:11:51.085Z,2421
2022-12-12T17:21:51.052Z,2415
2022-12-12T17:31:51.029Z,2412
2022-12-12T17:41:51.028Z,2409
2022-12-12T17:51:51.024Z,2407
2022-12-12T18:01:51.000Z,2407
2022-12-12T18:11:51.008Z,2405
2022-12-12T18:22:00.842Z,2404
2022-12-12T18:31:50.998Z,2405
2022-12-12T18:41:50.975Z,2404
2022-12-12T18:51:50.949Z,2402
2022-12-12T19:01:51.013Z,2402
2022-12-12T19:11:53.258Z,2402
2022-12-12T19:21:50.930Z,2414
2022-12-12T19:31:55.359Z,2409
2022-12-12T19:41:50.922Z,2407
2022-12-12T19:51:50.863Z,2405
2022-12-12T20:01:50.927Z,2404
2022-12-12T20:11:50.896Z,2402
2022-12-12T20:22:00.822Z,2401
2022-12-12T20:31:50.843Z,2401
2022-12-12T20:41:50.870Z,2400
2022-12-12T20:51:56.902Z,2402
2022-12-12T21:01:50.935Z,2402
2022-12-12T21:11:50.883Z,2402
2022-12-12T21:21:50.773Z,2401
2022-12-12T21:31:52.585Z,2414
2022-12-12T21:41:50.812Z,2407
2022-12-12T21:51:50.772Z,2405
2022-12-12T22:01:50.863Z,2402
2022-12-12T22:11:52.261Z,2399
2022-12-12T22:21:50.749Z,2398
2022-12-12T22:31:50.759Z,2397
2022-12-12T22:41:50.757Z,2395
2022-12-12T22:51:50.729Z,2393
2022-12-12T22:51:50.737Z,2393
2022-12-12T23:01:50.705Z,2392
2022-12-12T23:11:50.694Z,2392
2022-12-12T23:21:50.726Z,2391
2022-12-12T23:31:50.710Z,2391
2022-12-12T23:41:50.725Z,2402
2022-12-12T23:51:50.709Z,2398
